Time;durP1;ratioP1;P1;durP2;ratioP2;P2;SDS_P1;SDS_P2;PMS_P1;PMS_P2;Temp;Humidity;BMP_temperature;BMP_pressure;BME280_temperature;BME280_humidity;BME280_pressure;Samples;Min_cycle;Max_cycle;Signal;HPM_P1;HPM_P2
2023/11/11 00:02:01;;;;;;;1.58;1.10;;;;;;;;;;5037818;28;20103;-76
2023/11/11 00:04:27;;;;;;;1.95;1.05;;;;;;;;;;5026894;28;20045;-76
2023/11/11 00:06:52;;;;;;;3.03;1.23;;;;;;;;;;5033950;28;20041;-76
2023/11/11 00:09:18;;;;;;;1.58;0.95;;;;;;;;;;5041455;28;20122;-76
2023/11/11 00:11:47;;;;;;;1.98;0.63;;;;;;;;;;5045864;28;20048;-76
2023/11/11 00:14:13;;;;;;;2.47;0.80;;;;;;;;;;5044998;28;20032;-77
2023/11/11 00:16:39;;;;;;;2.15;0.88;;;;;;;;;;5033114;28;20046;-77
2023/11/11 00:19:06;;;;;;;2.65;0.77;;;;;;;;;;5025030;28;20079;-76
2023/11/11 00:21:36;;;;;;;3.50;0.80;;;;;;;;;;5033904;28;20044;-76
2023/11/11 00:24:02;;;;;;;1.35;0.70;;;;;;;;;;5031297;28;20091;-76
2023/11/11 00:26:27;;;;;;;2.05;0.63;;;;;;;;;;5033538;28;20029;-75
2023/11/11 00:28:52;;;;;;;2.47;0.80;;;;;;;;;;5027162;28;20136;-75
2023/11/11 00:31:18;;;;;;;3.05;1.00;;;;;;;;;;5024504;28;20062;-75
2023/11/11 00:33:44;;;;;;;4.30;1.00;;;;;;;;;;5046004;28;20044;-75
2023/11/11 00:36:09;;;;;;;2.17;0.63;;;;;;;;;;5037728;28;20696;-76
2023/11/11 00:38:37;;;;;;;1.42;0.90;;;;;;;;;;5036425;28;20393;-76
2023/11/11 00:41:03;;;;;;;1.98;1.00;;;;;;;;;;5040422;28;20037;-76
2023/11/11 00:43:30;;;;;;;1.02;0.93;;;;;;;;;;5040234;28;20120;-75
2023/11/11 01:51:07;;;;;;;2.10;1.00;;;;;;;;;;5058605;27;20749;-74
2023/11/11 01:53:34;;;;;;;2.17;0.70;;;;;;;;;;5060819;28;20094;-75
2023/11/11 01:56:00;;;;;;;3.28;1.00;;;;;;;;;;5069030;28;20055;-75
2023/11/11 01:58:26;;;;;;;0.82;0.75;;;;;;;;;;5056203;28;20029;-74
2023/11/11 02:00:52;;;;;;;1.63;0.93;;;;;;;;;;5055735;28;20043;-75
2023/11/11 02:03:19;;;;;;;2.30;1.00;;;;;;;;;;5058305;28;20028;-75
2023/11/11 02:05:46;;;;;;;1.38;0.80;;;;;;;;;;5058455;28;20030;-74
2023/11/11 02:08:12;;;;;;;5.70;0.90;;;;;;;;;;5073117;28;20050;-74
2023/11/11 02:10:38;;;;;;;2.20;0.90;;;;;;;;;;5054348;28;20055;-74
2023/11/11 02:13:05;;;;;;;4.78;1.00;;;;;;;;;;5054751;28;20025;-74
2023/11/11 02:15:31;;;;;;;1.92;1.00;;;;;;;;;;5069996;28;20020;-74
2023/11/11 02:18:03;;;;;;;2.53;1.30;;;;;;;;;;5055951;28;20086;-75
2023/11/11 02:20:32;;;;;;;2.45;0.82;;;;;;;;;;5059223;28;20108;-75
2023/11/11 02:23:04;;;;;;;1.98;1.13;;;;;;;;;;5054888;28;20027;-75
2023/11/11 02:25:30;;;;;;;2.15;0.98;;;;;;;;;;5053836;28;20029;-75
2023/11/11 02:27:56;;;;;;;2.92;1.38;;;;;;;;;;5056263;28;20523;-75
2023/11/11 02:30:21;;;;;;;2.88;1.10;;;;;;;;;;5059131;28;20027;-75
2023/11/11 02:32:48;;;;;;;2.40;0.75;;;;;;;;;;5066328;28;20602;-75
2023/11/11 02:35:14;;;;;;;2.15;0.90;;;;;;;;;;5058310;28;20021;-75
2023/11/11 02:37:39;;;;;;;2.88;0.90;;;;;;;;;;5063949;28;20657;-75
2023/11/11 02:40:07;;;;;;;1.38;0.93;;;;;;;;;;5067141;28;20013;-74
2023/11/11 02:42:33;;;;;;;2.40;0.90;;;;;;;;;;5056807;28;20534;-74
2023/11/11 02:44:58;;;;;;;1.05;0.82;;;;;;;;;;5052803;28;20017;-75
2023/11/11 02:47:23;;;;;;;6.20;0.95;;;;;;;;;;5060874;28;20081;-74
2023/11/11 02:49:49;;;;;;;4.35;0.93;;;;;;;;;;5051560;28;20100;-74
2023/11/11 02:52:14;;;;;;;1.58;1.00;;;;;;;;;;5039463;28;20024;-74
2023/11/11 02:54:40;;;;;;;2.28;0.95;;;;;;;;;;5038087;28;20446;-74
2023/11/11 02:57:05;;;;;;;1.67;0.98;;;;;;;;;;5039503;28;20031;-74
2023/11/11 02:59:31;;;;;;;2.70;1.05;;;;;;;;;;5040621;28;20055;-74
2023/11/11 03:01:56;;;;;;;1.95;0.90;;;;;;;;;;5039967;28;20163;-75
2023/11/11 03:04:21;;;;;;;1.85;1.00;;;;;;;;;;5038742;28;20021;-74
2023/11/11 03:06:47;;;;;;;2.28;1.27;;;;;;;;;;5038069;28;20033;-74
2023/11/11 03:09:12;;;;;;;3.45;1.25;;;;;;;;;;5039263;28;20017;-73
2023/11/11 03:11:39;;;;;;;2.85;1.35;;;;;;;;;;5044128;28;20116;-73
2023/11/11 03:14:04;;;;;;;5.15;1.10;;;;;;;;;;5041829;28;20072;-73
2023/11/11 03:16:37;;;;;;;1.08;0.90;;;;;;;;;;5047174;28;20433;-75
2023/11/11 03:19:04;;;;;;;2.40;1.00;;;;;;;;;;5048702;28;20401;-74
2023/11/11 03:21:29;;;;;;;1.35;1.00;;;;;;;;;;5052076;28;20016;-74
2023/11/11 03:23:55;;;;;;;3.00;1.23;;;;;;;;;;5048943;28;20056;-73
2023/11/11 03:26:23;;;;;;;1.75;1.23;;;;;;;;;;5049769;28;20013;-74
2023/11/11 03:28:49;;;;;;;3.50;1.20;;;;;;;;;;5050149;28;20044;-74
2023/11/11 03:31:15;;;;;;;3.58;1.00;;;;;;;;;;5044167;28;20025;-74
2023/11/11 03:33:41;;;;;;;2.35;1.10;;;;;;;;;;5048103;28;20136;-75
2023/11/11 03:36:06;;;;;;;2.28;1.20;;;;;;;;;;5047747;28;20494;-75
2023/11/11 03:38:32;;;;;;;5.55;1.38;;;;;;;;;;5046926;28;20115;-74
2023/11/11 03:40:57;;;;;;;2.75;1.38;;;;;;;;;;5054183;28;20551;-74
2023/11/11 03:43:23;;;;;;;2.63;1.50;;;;;;;;;;5047885;28;20099;-74
2023/11/11 03:45:48;;;;;;;3.17;1.42;;;;;;;;;;5056211;28;20028;-74
2023/11/11 03:48:14;;;;;;;2.45;1.48;;;;;;;;;;5047886;28;20021;-74
2023/11/11 03:50:40;;;;;;;3.55;1.63;;;;;;;;;;5040861;28;20578;-74
2023/11/11 03:53:05;;;;;;;2.22;1.40;;;;;;;;;;5054001;28;20032;-75
2023/11/11 03:55:31;;;;;;;3.83;1.50;;;;;;;;;;5046887;28;20440;-74
2023/11/11 03:57:57;;;;;;;3.70;1.27;;;;;;;;;;5046390;28;20052;-74
2023/11/11 04:00:23;;;;;;;2.03;1.35;;;;;;;;;;5036225;28;20064;-74
2023/11/11 04:02:48;;;;;;;5.32;1.40;;;;;;;;;;5039439;28;20048;-74
2023/11/11 04:05:14;;;;;;;1.63;1.20;;;;;;;;;;5049721;28;20493;-74
2023/11/11 04:07:40;;;;;;;2.20;1.50;;;;;;;;;;5037924;28;20056;-74
2023/11/11 04:10:06;;;;;;;3.08;1.20;;;;;;;;;;5047988;28;20386;-74
2023/11/11 04:12:31;;;;;;;2.03;1.20;;;;;;;;;;5046751;28;20025;-74
2023/11/11 04:14:57;;;;;;;1.73;1.25;;;;;;;;;;5047427;28;20028;-75
2023/11/11 04:17:22;;;;;;;5.38;1.83;;;;;;;;;;5047749;28;20025;-74
2023/11/11 04:19:48;;;;;;;3.17;1.33;;;;;;;;;;5048307;28;20082;-74
2023/11/11 04:22:13;;;;;;;2.75;1.70;;;;;;;;;;5051876;28;20020;-74
2023/11/11 04:24:39;;;;;;;3.17;1.30;;;;;;;;;;5048711;28;20395;-74
2023/11/11 04:27:06;;;;;;;2.95;1.13;;;;;;;;;;5047852;28;20021;-74
2023/11/11 04:29:31;;;;;;;2.42;1.42;;;;;;;;;;5047689;28;20528;-74
2023/11/11 04:31:57;;;;;;;2.22;1.33;;;;;;;;;;5046956;28;20025;-74
2023/11/11 04:34:22;;;;;;;2.22;1.40;;;;;;;;;;5046005;28;20490;-74
2023/11/11 04:36:48;;;;;;;0.50;0.50;;;;;;;;;;5030543;28;20078;-74
2023/11/11 04:39:14;;;;;;;3.65;1.40;;;;;;;;;;5050713;28;20017;-73
2023/11/11 04:41:42;;;;;;;1.25;1.13;;;;;;;;;;5048641;28;20036;-73
2023/11/11 04:44:08;;;;;;;4.15;1.25;;;;;;;;;;5046366;28;20104;-73
2023/11/11 04:46:33;;;;;;;3.47;1.33;;;;;;;;;;5050351;28;20107;-73
2023/11/11 04:48:58;;;;;;;2.47;1.50;;;;;;;;;;5047455;28;20397;-73
2023/11/11 04:51:24;;;;;;;5.03;1.77;;;;;;;;;;5046400;28;20033;-73
2023/11/11 04:53:50;;;;;;;4.35;1.50;;;;;;;;;;5046954;28;20021;-73
2023/11/11 04:56:15;;;;;;;4.28;1.95;;;;;;;;;;5046783;28;20431;-73
2023/11/11 04:58:40;;;;;;;3.95;1.45;;;;;;;;;;5047466;28;20071;-72
2023/11/11 05:01:06;;;;;;;2.85;1.45;;;;;;;;;;5046463;28;20020;-72
2023/11/11 05:03:31;;;;;;;3.35;1.52;;;;;;;;;;5046770;28;20029;-72
2023/11/11 05:05:57;;;;;;;2.78;1.50;;;;;;;;;;5049409;28;20017;-73
2023/11/11 05:08:23;;;;;;;3.03;1.45;;;;;;;;;;5051989;28;20042;-72
2023/11/11 05:10:48;;;;;;;3.78;1.90;;;;;;;;;;5038551;28;20016;-72
2023/11/11 05:13:18;;;;;;;2.13;1.27;;;;;;;;;;5050445;28;20052;-73
2023/11/11 05:15:47;;;;;;;2.00;1.55;;;;;;;;;;5046516;28;20067;-73
2023/11/11 05:18:13;;;;;;;2.10;1.25;;;;;;;;;;5046192;28;20020;-73
2023/11/11 05:20:41;;;;;;;4.88;1.60;;;;;;;;;;5044144;28;20028;-72
2023/11/11 05:23:10;;;;;;;2.90;1.50;;;;;;;;;;5045893;28;20383;-73
2023/11/11 05:25:36;;;;;;;4.30;1.60;;;;;;;;;;5048158;28;20456;-73
2023/11/11 05:28:01;;;;;;;4.10;2.08;;;;;;;;;;5046620;28;20079;-73
2023/11/11 05:30:28;;;;;;;2.35;1.85;;;;;;;;;;5049786;28;20025;-73
2023/11/11 05:32:53;;;;;;;1.38;1.20;;;;;;;;;;5043867;28;20112;-72
2023/11/11 05:35:20;;;;;;;5.72;1.70;;;;;;;;;;5039281;28;20917;-73
2023/11/11 05:37:45;;;;;;;1.90;1.48;;;;;;;;;;5043823;28;20039;-72
2023/11/11 05:40:17;;;;;;;6.15;2.03;;;;;;;;;;5045185;28;20021;-72
2023/11/11 05:42:43;;;;;;;1.42;1.08;;;;;;;;;;5013737;28;20041;-73
2023/11/11 05:45:10;;;;;;;0.85;0.82;;;;;;;;;;4998633;28;20029;-73
2023/11/11 05:47:35;;;;;;;0.50;0.50;;;;;;;;;;5009585;28;20045;-72
2023/11/11 05:50:01;;;;;;;0.65;0.47;;;;;;;;;;5004919;28;20578;-72
2023/11/11 05:52:27;;;;;;;0.80;0.65;;;;;;;;;;5005281;28;20112;-73
2023/11/11 05:54:52;;;;;;;0.73;0.52;;;;;;;;;;5007615;28;20057;-74
2023/11/11 05:57:17;;;;;;;1.50;0.40;;;;;;;;;;5005755;28;20030;-73
2023/11/11 05:59:43;;;;;;;0.40;0.30;;;;;;;;;;4996949;28;20037;-73
2023/11/11 06:02:09;;;;;;;0.98;0.30;;;;;;;;;;5007624;28;20129;-73
2023/11/11 06:04:35;;;;;;;0.52;0.20;;;;;;;;;;5007121;28;20731;-73
2023/11/11 06:07:01;;;;;;;0.20;0.20;;;;;;;;;;5008109;28;20041;-73
2023/11/11 06:09:26;;;;;;;0.30;0.30;;;;;;;;;;5006874;28;20029;-72
2023/11/11 06:11:52;;;;;;;0.38;0.30;;;;;;;;;;5006230;28;20045;-73
2023/11/11 06:14:18;;;;;;;0.20;0.20;;;;;;;;;;4993496;28;20068;-72
2023/11/11 06:16:44;;;;;;;0.75;0.35;;;;;;;;;;5023669;28;20061;-71
2023/11/11 06:19:10;;;;;;;0.30;0.30;;;;;;;;;;4999411;28;20075;-72
2023/11/11 06:21:36;;;;;;;0.20;0.20;;;;;;;;;;4998451;28;20041;-72
2023/11/11 06:24:01;;;;;;;0.28;0.28;;;;;;;;;;4992200;28;20046;-73
2023/11/11 06:26:28;;;;;;;0.20;0.20;;;;;;;;;;4996993;28;20067;-74
2023/11/11 06:28:55;;;;;;;0.63;0.20;;;;;;;;;;4991640;28;20113;-74
2023/11/11 06:31:21;;;;;;;0.20;0.20;;;;;;;;;;4995447;28;20066;-74
2023/11/11 06:33:46;;;;;;;0.38;0.22;;;;;;;;;;5003716;28;20498;-74
2023/11/11 06:36:14;;;;;;;0.17;0.17;;;;;;;;;;4989736;28;20038;-74
2023/11/11 06:38:40;;;;;;;0.13;0.13;;;;;;;;;;4998212;28;20061;-74
2023/11/11 06:41:07;;;;;;;0.43;0.30;;;;;;;;;;4999357;28;20046;-74
2023/11/11 06:43:33;;;;;;;1.08;0.20;;;;;;;;;;4991421;28;20133;-74
2023/11/11 06:45:59;;;;;;;0.35;0.30;;;;;;;;;;4988210;28;20038;-73
2023/11/11 06:48:26;;;;;;;0.25;0.25;;;;;;;;;;4987469;28;20037;-73
2023/11/11 06:50:55;;;;;;;0.20;0.20;;;;;;;;;;5012604;28;20049;-73
2023/11/11 06:53:20;;;;;;;1.15;0.20;;;;;;;;;;4999045;28;20041;-73
2023/11/11 06:55:48;;;;;;;0.35;0.20;;;;;;;;;;5001510;28;20038;-73
2023/11/11 06:58:13;;;;;;;0.55;0.30;;;;;;;;;;4992019;28;20066;-73
2023/11/11 07:00:39;;;;;;;0.20;0.20;;;;;;;;;;5002495;28;20083;-73
2023/11/11 07:03:04;;;;;;;0.73;0.28;;;;;;;;;;4990280;28;20049;-74
2023/11/11 07:05:30;;;;;;;0.20;0.20;;;;;;;;;;4978385;28;20153;-73
2023/11/11 07:07:55;;;;;;;0.22;0.22;;;;;;;;;;4976548;28;20041;-72
2023/11/11 07:10:23;;;;;;;0.68;0.20;;;;;;;;;;4987872;28;20033;-73
2023/11/11 07:12:49;;;;;;;0.20;0.20;;;;;;;;;;4992741;28;20413;-74
2023/11/11 07:15:15;;;;;;;0.10;0.10;;;;;;;;;;4991852;28;20057;-73
2023/11/11 07:17:41;;;;;;;0.10;0.10;;;;;;;;;;4984020;28;20038;-73
2023/11/11 07:20:12;;;;;;;0.10;0.10;;;;;;;;;;5003263;28;20083;-73
2023/11/11 07:22:38;;;;;;;0.83;0.20;;;;;;;;;;5013000;28;20041;-72
2023/11/11 07:25:05;;;;;;;0.30;0.30;;;;;;;;;;5002416;28;20045;-74
2023/11/11 07:27:32;;;;;;;0.93;0.80;;;;;;;;;;5013134;28;20129;-73
2023/11/11 07:29:57;;;;;;;0.30;0.20;;;;;;;;;;5015179;28;20037;-74
2023/11/11 07:32:22;;;;;;;0.20;0.20;;;;;;;;;;5013179;28;20045;-73
2023/11/11 07:34:48;;;;;;;0.13;0.13;;;;;;;;;;5010931;28;20135;-74
2023/11/11 07:37:13;;;;;;;0.10;0.10;;;;;;;;;;4997398;28;20037;-74
2023/11/11 07:39:40;;;;;;;0.50;0.20;;;;;;;;;;5003383;28;20037;-73
2023/11/11 07:42:07;;;;;;;0.10;0.10;;;;;;;;;;5012933;28;20069;-73
2023/11/11 07:44:33;;;;;;;0.30;0.30;;;;;;;;;;5015093;28;20089;-73
2023/11/11 07:46:59;;;;;;;0.40;0.40;;;;;;;;;;5018947;28;20706;-73
2023/11/11 07:49:24;;;;;;;0.47;0.43;;;;;;;;;;5013192;28;20076;-74
2023/11/11 07:51:49;;;;;;;0.40;0.40;;;;;;;;;;5012158;28;20057;-73
2023/11/11 07:54:15;;;;;;;0.68;0.50;;;;;;;;;;5021260;28;20108;-74
2023/11/11 07:56:41;;;;;;;0.70;0.70;;;;;;;;;;5014084;28;21808;-74
2023/11/11 07:59:07;;;;;;;1.00;0.60;;;;;;;;;;5021170;28;20059;-72
2023/11/11 08:01:32;;;;;;;0.60;0.40;;;;;;;;;;5017396;28;20488;-71
2023/11/11 08:03:58;;;;;;;2.35;1.05;;;;;;;;;;5013738;28;20060;-72
2023/11/11 08:06:26;;;;;;;0.47;0.47;;;;;;;;;;5010340;28;20060;-72
2023/11/11 08:08:54;;;;;;;1.08;0.82;;;;;;;;;;5015808;28;20121;-72
2023/11/11 08:11:20;;;;;;;2.67;1.50;;;;;;;;;;5015109;28;20542;-72
2023/11/11 08:13:45;;;;;;;2.83;1.67;;;;;;;;;;5012921;28;20125;-72
2023/11/11 08:16:11;;;;;;;3.25;2.03;;;;;;;;;;5014072;28;20113;-72
2023/11/11 08:18:37;;;;;;;3.03;2.05;;;;;;;;;;5004049;28;20041;-72
2023/11/11 08:21:04;;;;;;;3.00;1.98;;;;;;;;;;5005498;28;20037;-72
2023/11/11 08:23:32;;;;;;;3.85;2.50;;;;;;;;;;5013127;28;20704;-72
2023/11/11 08:25:57;;;;;;;4.78;2.47;;;;;;;;;;5023602;28;20025;-72
2023/11/11 08:28:23;;;;;;;4.20;2.08;;;;;;;;;;5018273;28;20040;-72
2023/11/11 08:30:48;;;;;;;4.00;2.42;;;;;;;;;;5016606;28;20435;-72
2023/11/11 08:33:14;;;;;;;5.57;2.22;;;;;;;;;;5001736;28;20049;-72
2023/11/11 08:35:39;;;;;;;4.55;3.05;;;;;;;;;;5005795;28;20095;-72
2023/11/11 08:38:05;;;;;;;2.83;1.83;;;;;;;;;;5010312;28;20515;-72
2023/11/11 08:40:31;;;;;;;4.53;3.00;;;;;;;;;;5015126;28;20193;-73
2023/11/11 08:42:56;;;;;;;4.10;2.08;;;;;;;;;;5021441;28;20063;-73
2023/11/11 08:45:22;;;;;;;4.85;3.20;;;;;;;;;;5015331;28;20037;-72
2023/11/11 08:47:48;;;;;;;6.55;0.95;;;;;;;;;;5007556;28;20033;-73
2023/11/11 08:50:13;;;;;;;4.65;2.90;;;;;;;;;;5013464;28;20503;-72
2023/11/11 08:52:42;;;;;;;3.08;1.88;;;;;;;;;;5019041;28;20057;-73
2023/11/11 08:55:08;;;;;;;3.47;2.33;;;;;;;;;;4997332;28;20239;-72
2023/11/11 08:57:35;;;;;;;3.58;1.67;;;;;;;;;;5014120;28;20459;-73
2023/11/11 09:00:01;;;;;;;4.18;2.55;;;;;;;;;;4997566;28;20037;-73
2023/11/11 09:02:26;;;;;;;2.05;1.27;;;;;;;;;;5006208;28;20056;-73
2023/11/11 09:04:52;;;;;;;2.70;2.00;;;;;;;;;;5012054;28;20045;-72
2023/11/11 09:07:20;;;;;;;3.95;2.20;;;;;;;;;;5016732;28;20045;-72
2023/11/11 09:09:46;;;;;;;3.20;2.17;;;;;;;;;;5008860;28;20116;-75
2023/11/11 09:12:11;;;;;;;4.07;2.63;;;;;;;;;;5014414;28;20069;-74
2023/11/11 09:14:36;;;;;;;7.82;3.47;;;;;;;;;;5015397;28;20037;-75
2023/11/11 09:17:05;;;;;;;7.78;3.60;;;;;;;;;;5005786;28;20434;-70
2023/11/11 09:19:31;;;;;;;3.42;2.10;;;;;;;;;;4996529;28;20100;-73
2023/11/11 09:21:57;;;;;;;6.45;2.97;;;;;;;;;;5019059;28;20098;-73
2023/11/11 09:24:23;;;;;;;2.95;1.98;;;;;;;;;;5002066;28;20574;-74
2023/11/11 09:26:50;;;;;;;2.13;0.90;;;;;;;;;;5011709;28;20160;-74
2023/11/11 09:29:15;;;;;;;3.15;1.98;;;;;;;;;;5009416;28;20064;-73
2023/11/11 09:31:43;;;;;;;5.13;2.85;;;;;;;;;;5010314;28;20086;-74
2023/11/11 09:34:09;;;;;;;2.58;1.50;;;;;;;;;;5019114;28;20036;-73
2023/11/11 09:36:35;;;;;;;0.95;0.70;;;;;;;;;;5013605;28;20736;-74
2023/11/11 09:39:00;;;;;;;2.78;1.40;;;;;;;;;;5020245;28;20041;-73
2023/11/11 09:41:26;;;;;;;2.60;1.85;;;;;;;;;;5014194;28;20045;-74
2023/11/11 09:43:52;;;;;;;5.68;2.53;;;;;;;;;;5004103;28;20041;-73
2023/11/11 09:46:17;;;;;;;4.40;2.83;;;;;;;;;;5012902;28;20065;-72
2023/11/11 09:48:43;;;;;;;5.78;2.65;;;;;;;;;;5012879;28;20594;-74
2023/11/11 09:51:10;;;;;;;4.88;2.97;;;;;;;;;;5017462;28;20071;-73
2023/11/11 09:53:38;;;;;;;2.22;1.80;;;;;;;;;;5011845;28;20826;-73
2023/11/11 09:56:05;;;;;;;3.33;1.90;;;;;;;;;;5013954;28;20037;-73
2023/11/11 09:58:31;;;;;;;2.67;1.95;;;;;;;;;;4985498;28;20129;-73
2023/11/11 10:00:57;;;;;;;2.58;1.90;;;;;;;;;;5014839;28;20034;-73
2023/11/11 10:03:23;;;;;;;2.10;1.75;;;;;;;;;;5017357;28;20030;-75
2023/11/11 10:05:49;;;;;;;5.00;3.33;;;;;;;;;;5020777;28;20068;-75
2023/11/11 10:08:14;;;;;;;6.05;2.80;;;;;;;;;;5017473;28;20573;-75
2023/11/11 10:10:41;;;;;;;7.93;3.45;;;;;;;;;;5016454;28;20040;-74
2023/11/11 10:13:07;;;;;;;6.85;4.20;;;;;;;;;;5004413;28;20508;-74
2023/11/11 10:15:32;;;;;;;8.30;6.47;;;;;;;;;;4994380;28;20126;-74
2023/11/11 10:18:00;;;;;;;9.80;7.78;;;;;;;;;;5007632;28;20053;-74
2023/11/11 10:20:30;;;;;;;17.00;9.07;;;;;;;;;;5009328;28;20112;-75
2023/11/11 10:22:56;;;;;;;33.17;20.10;;;;;;;;;;5009723;28;20041;-73
2023/11/11 10:25:21;;;;;;;5.80;4.88;;;;;;;;;;4996596;28;20779;-74
2023/11/11 10:27:54;;;;;;;7.85;4.18;;;;;;;;;;4992084;28;20037;-74
2023/11/11 10:30:23;;;;;;;7.78;4.50;;;;;;;;;;4991470;28;20034;-75
2023/11/11 10:32:49;;;;;;;2.80;2.05;;;;;;;;;;5008786;28;20045;-73
2023/11/11 10:35:16;;;;;;;1.52;1.33;;;;;;;;;;5006594;28;20026;-74
2023/11/11 10:37:42;;;;;;;5.97;2.90;;;;;;;;;;5009071;28;20041;-75
2023/11/11 10:40:09;;;;;;;2.78;1.30;;;;;;;;;;4997433;28;20046;-74
2023/11/11 10:42:35;;;;;;;3.72;2.65;;;;;;;;;;5012080;28;20149;-75
2023/11/11 10:45:04;;;;;;;2.05;1.33;;;;;;;;;;5005323;28;20057;-76
2023/11/11 10:47:31;;;;;;;2.08;1.25;;;;;;;;;;5008929;28;20128;-74
2023/11/11 10:49:59;;;;;;;2.58;2.15;;;;;;;;;;5008240;28;20037;-74
2023/11/11 10:52:24;;;;;;;2.35;1.60;;;;;;;;;;4998057;28;20101;-73
2023/11/11 10:54:52;;;;;;;3.25;2.20;;;;;;;;;;5007133;28;20112;-73
2023/11/11 10:57:17;;;;;;;4.80;1.67;;;;;;;;;;5007995;28;20037;-74
2023/11/11 10:59:43;;;;;;;2.67;2.15;;;;;;;;;;5006919;28;20719;-72
2023/11/11 11:02:11;;;;;;;2.95;1.75;;;;;;;;;;5011134;28;20902;-75
2023/11/11 11:04:41;;;;;;;4.65;2.08;;;;;;;;;;5005509;28;20048;-74
2023/11/11 11:07:11;;;;;;;3.42;1.63;;;;;;;;;;4980775;28;20500;-74
2023/11/11 11:09:51;;;;;;;1.88;1.00;;;;;;;;;;5005524;28;20041;-75
2023/11/11 11:12:31;;;;;;;3.03;1.92;;;;;;;;;;5008994;28;20038;-72
2023/11/11 11:15:00;;;;;;;2.30;1.50;;;;;;;;;;5010134;28;20107;-74
2023/11/11 11:17:36;;;;;;;2.42;1.17;;;;;;;;;;5003698;28;20048;-73
2023/11/11 11:20:08;;;;;;;3.22;1.50;;;;;;;;;;5011122;28;20044;-74
2023/11/11 11:22:37;;;;;;;3.40;1.48;;;;;;;;;;5009865;28;20041;-74
2023/11/11 11:25:33;;;;;;;1.60;1.30;;;;;;;;;;5014705;28;20045;-74
2023/11/11 11:28:11;;;;;;;2.80;1.40;;;;;;;;;;4985944;28;20069;-74
2023/11/11 11:30:42;;;;;;;0.75;0.75;;;;;;;;;;4999624;28;20045;-73
2023/11/11 11:33:08;;;;;;;;;;;;;;;;;;5018848;28;20068;-73
2023/11/11 11:35:38;;;;;;;1.42;1.30;;;;;;;;;;5016008;28;20578;-73
2023/11/11 11:38:07;;;;;;;3.40;1.70;;;;;;;;;;5016205;28;20030;-73
2023/11/11 11:40:37;;;;;;;1.42;0.68;;;;;;;;;;5003955;28;20041;-74
2023/11/11 11:43:09;;;;;;;2.78;1.30;;;;;;;;;;5012499;28;20042;-73
2023/11/11 11:45:36;;;;;;;4.22;1.10;;;;;;;;;;5012944;28;20047;-76
2023/11/11 11:48:03;;;;;;;3.92;1.60;;;;;;;;;;5013261;28;20041;-75
2023/11/11 11:50:29;;;;;;;1.30;0.90;;;;;;;;;;5000867;28;20511;-74
2023/11/11 11:52:54;;;;;;;2.05;1.63;;;;;;;;;;5006455;28;20064;-74
2023/11/11 11:55:20;;;;;;;1.98;1.60;;;;;;;;;;5012344;28;20044;-74
2023/11/11 11:57:55;;;;;;;2.90;1.48;;;;;;;;;;5012542;28;20037;-73
2023/11/11 12:00:21;;;;;;;1.52;1.20;;;;;;;;;;5013130;28;20069;-73
2023/11/11 12:02:47;;;;;;;0.68;0.68;;;;;;;;;;5014462;28;20068;-73
2023/11/11 12:05:12;;;;;;;1.48;1.10;;;;;;;;;;4996108;28;20040;-73
2023/11/11 12:07:39;;;;;;;18.02;7.93;;;;;;;;;;5013814;28;20033;-73
2023/11/11 12:10:11;;;;;;;21.23;7.93;;;;;;;;;;5011978;28;20039;-75
2023/11/11 12:12:36;;;;;;;3.53;2.42;;;;;;;;;;5009572;28;20052;-73
2023/11/11 12:15:11;;;;;;;2.63;1.63;;;;;;;;;;5008843;28;20029;-75
2023/11/11 12:17:40;;;;;;;10.88;5.57;;;;;;;;;;4996500;28;21354;-73
2023/11/11 12:20:06;;;;;;;7.07;2.35;;;;;;;;;;5011355;28;20047;-74
2023/11/11 12:22:32;;;;;;;46.55;15.95;;;;;;;;;;5010156;28;20036;-73
2023/11/11 12:24:58;;;;;;;2.17;1.60;;;;;;;;;;5009061;28;20037;-73
2023/11/11 12:27:24;;;;;;;2.35;1.80;;;;;;;;;;5006112;28;20040;-73
2023/11/11 12:29:50;;;;;;;5.50;3.28;;;;;;;;;;5009364;28;20507;-74
2023/11/11 12:32:15;;;;;;;3.58;2.65;;;;;;;;;;4999586;28;20049;-73
2023/11/11 12:34:43;;;;;;;2.10;1.27;;;;;;;;;;5013640;28;20535;-73
2023/11/11 12:37:09;;;;;;;3.85;2.25;;;;;;;;;;5009878;28;20045;-74
2023/11/11 12:39:48;;;;;;;3.10;2.40;;;;;;;;;;5000597;28;20037;-74
2023/11/11 12:42:15;;;;;;;3.03;2.10;;;;;;;;;;5013860;28;20033;-73
2023/11/11 12:44:41;;;;;;;2.30;1.23;;;;;;;;;;4978347;28;20048;-74
2023/11/11 12:47:12;;;;;;;3.42;1.90;;;;;;;;;;5012650;28;20637;-73
2023/11/11 12:49:47;;;;;;;2.22;1.13;;;;;;;;;;5006576;28;20033;-74
2023/11/11 12:52:16;;;;;;;1.83;1.58;;;;;;;;;;5008456;28;20119;-74
2023/11/11 12:54:42;;;;;;;4.00;2.33;;;;;;;;;;5009996;28;20033;-75
2023/11/11 12:57:07;;;;;;;4.30;1.95;;;;;;;;;;4995392;28;20048;-74
2023/11/11 12:59:32;;;;;;;5.78;3.72;;;;;;;;;;4988966;28;20096;-72
2023/11/11 13:02:05;;;;;;;10.23;6.65;;;;;;;;;;5006195;28;20045;-74
2023/11/11 13:04:31;;;;;;;2.40;1.60;;;;;;;;;;5010749;28;20028;-74
2023/11/11 13:06:56;;;;;;;3.22;2.38;;;;;;;;;;5001509;28;20116;-75
2023/11/11 13:09:38;;;;;;;1.73;1.15;;;;;;;;;;5002275;28;20806;-75
2023/11/11 13:12:04;;;;;;;3.20;2.08;;;;;;;;;;4975054;28;20046;-74
2023/11/11 13:14:29;;;;;;;3.83;2.30;;;;;;;;;;5001485;28;20041;-74
2023/11/11 13:16:55;;;;;;;2.40;2.20;;;;;;;;;;4990393;28;20399;-73
2023/11/11 13:19:21;;;;;;;1.42;1.23;;;;;;;;;;5002113;28;20034;-73
2023/11/11 13:21:47;;;;;;;2.25;1.75;;;;;;;;;;5001323;28;20459;-73
2023/11/11 13:24:12;;;;;;;1.85;1.60;;;;;;;;;;4995032;28;20085;-74
2023/11/11 13:26:42;;;;;;;1.10;0.98;;;;;;;;;;4999191;28;20073;-74
2023/11/11 13:29:07;;;;;;;3.70;1.55;;;;;;;;;;5008411;28;20041;-73
2023/11/11 13:31:32;;;;;;;1.85;1.35;;;;;;;;;;5009734;28;20037;-75
2023/11/11 13:33:58;;;;;;;1.90;1.70;;;;;;;;;;5009157;28;20275;-73
2023/11/11 13:36:33;;;;;;;2.45;1.58;;;;;;;;;;5000904;28;20112;-73
2023/11/11 13:38:59;;;;;;;1.20;1.13;;;;;;;;;;4995770;28;20068;-77
2023/11/11 13:41:36;;;;;;;1.83;1.70;;;;;;;;;;5005736;28;20061;-74
2023/11/11 13:44:02;;;;;;;2.00;1.80;;;;;;;;;;5003218;28;20567;-75
2023/11/11 13:46:30;;;;;;;2.38;1.80;;;;;;;;;;5004786;28;20038;-73
2023/11/11 13:48:56;;;;;;;17.27;8.80;;;;;;;;;;4999427;28;20041;-73
2023/11/11 13:51:25;;;;;;;3.65;1.80;;;;;;;;;;4994121;28;20154;-76
2023/11/11 13:53:55;;;;;;;8.07;1.73;;;;;;;;;;5013015;28;20427;-74
2023/11/11 13:56:24;;;;;;;1.50;1.40;;;;;;;;;;5001859;28;20121;-74
2023/11/11 13:58:52;;;;;;;2.00;1.42;;;;;;;;;;5005122;28;20057;-73
2023/11/11 14:01:18;;;;;;;2.58;1.50;;;;;;;;;;4992561;28;20046;-73
2023/11/11 14:03:44;;;;;;;1.75;1.63;;;;;;;;;;4991837;28;20052;-74
2023/11/11 14:06:10;;;;;;;3.85;1.75;;;;;;;;;;5008068;28;20037;-74
2023/11/11 14:08:36;;;;;;;2.15;1.42;;;;;;;;;;5002809;28;20540;-74
2023/11/11 14:11:02;;;;;;;1.80;1.70;;;;;;;;;;5009919;28;20118;-74
2023/11/11 14:13:29;;;;;;;2.25;1.88;;;;;;;;;;5006478;28;20061;-73
2023/11/11 14:15:55;;;;;;;1.83;1.60;;;;;;;;;;5012147;28;20029;-74
2023/11/11 14:18:22;;;;;;;2.53;2.17;;;;;;;;;;4998645;28;20061;-73
2023/11/11 14:20:48;;;;;;;1.70;1.60;;;;;;;;;;5008475;28;20068;-74
2023/11/11 14:23:19;;;;;;;4.53;3.95;;;;;;;;;;5003708;28;20041;-73
2023/11/11 14:25:45;;;;;;;1.92;1.73;;;;;;;;;;5005251;28;20128;-73
2023/11/11 14:28:11;;;;;;;1.80;1.52;;;;;;;;;;5003856;28;20136;-72
2023/11/11 14:30:37;;;;;;;4.45;1.45;;;;;;;;;;5005112;28;20183;-73
2023/11/11 14:33:03;;;;;;;1.40;1.25;;;;;;;;;;4942362;28;20050;-73
2023/11/11 14:35:29;;;;;;;1.75;1.30;;;;;;;;;;4971148;28;20624;-73
2023/11/11 14:37:55;;;;;;;2.60;1.45;;;;;;;;;;4981655;28;20117;-74
2023/11/11 14:40:22;;;;;;;1.65;1.50;;;;;;;;;;4974170;28;20042;-73
2023/11/11 14:42:50;;;;;;;3.42;1.30;;;;;;;;;;4966508;28;20026;-74
2023/11/11 14:45:17;;;;;;;1.70;1.13;;;;;;;;;;4977534;28;20041;-74
2023/11/11 14:47:48;;;;;;;1.88;1.30;;;;;;;;;;4993119;28;20650;-75
2023/11/11 14:50:15;;;;;;;2.43;1.40;;;;;;;;;;5005482;28;20041;-74
2023/11/11 14:52:41;;;;;;;1.75;1.42;;;;;;;;;;5000587;28;20038;-73
2023/11/11 14:55:13;;;;;;;2.05;1.10;;;;;;;;;;4981478;28;20036;-74
2023/11/11 14:57:39;;;;;;;1.30;1.20;;;;;;;;;;4995245;28;20105;-74
2023/11/11 15:00:06;;;;;;;1.77;1.50;;;;;;;;;;4994623;28;20671;-73
2023/11/11 15:02:35;;;;;;;1.58;1.48;;;;;;;;;;4986088;28;20038;-74
2023/11/11 15:05:03;;;;;;;2.13;0.95;;;;;;;;;;4986787;28;20515;-73
2023/11/11 15:07:35;;;;;;;1.58;1.45;;;;;;;;;;4990739;28;20073;-74
2023/11/11 15:10:01;;;;;;;2.13;1.48;;;;;;;;;;4996448;28;20034;-74
2023/11/11 15:12:27;;;;;;;2.97;1.50;;;;;;;;;;4988059;28;20034;-73
2023/11/11 15:14:54;;;;;;;2.70;1.45;;;;;;;;;;4998602;28;20040;-75
2023/11/11 15:17:23;;;;;;;2.80;1.75;;;;;;;;;;4995758;28;20030;-74
2023/11/11 15:19:49;;;;;;;2.13;1.58;;;;;;;;;;4980654;28;20034;-72
2023/11/11 15:22:16;;;;;;;2.65;1.67;;;;;;;;;;4994709;28;20030;-75
2023/11/11 15:24:42;;;;;;;2.03;1.50;;;;;;;;;;4972822;28;20935;-72
2023/11/11 15:27:08;;;;;;;1.55;1.45;;;;;;;;;;4996853;28;20041;-74
2023/11/11 15:29:34;;;;;;;1.20;1.10;;;;;;;;;;4995601;28;20033;-75
2023/11/11 15:32:01;;;;;;;1.65;1.55;;;;;;;;;;4999466;28;20053;-74
2023/11/11 15:34:26;;;;;;;1.80;1.58;;;;;;;;;;4998205;28;20037;-74
2023/11/11 15:36:52;;;;;;;3.60;1.73;;;;;;;;;;5000121;28;20422;-75
2023/11/11 15:39:22;;;;;;;2.90;1.50;;;;;;;;;;4990814;28;20689;-73
2023/11/11 15:41:49;;;;;;;3.00;1.80;;;;;;;;;;4994866;28;20034;-72
2023/11/11 15:44:14;;;;;;;2.92;1.60;;;;;;;;;;4984291;28;20401;-74
2023/11/11 15:46:40;;;;;;;3.38;1.67;;;;;;;;;;4996558;28;20049;-75